Time;durP1;ratioP1;P1;durP2;ratioP2;P2;SDS_P1;SDS_P2;PMS_P1;PMS_P2;Temp;Humidity;BMP_temperature;BMP_pressure;BME280_temperature;BME280_humidity;BME280_pressure;Samples;Min_cycle;Max_cycle;Signal;HPM_P1;HPM_P2
2021/10/07 00:01:27;;;;;;;28.90;20.70;;;12.40;99.90;;;;;;5020346;28;20301;-40
2021/10/07 00:03:53;;;;;;;29.70;21.70;;;12.50;99.90;;;;;;5027602;28;20280;-39
2021/10/07 00:06:19;;;;;;;26.27;19.33;;;12.70;99.90;;;;;;5028495;28;20534;-41
2021/10/07 00:08:45;;;;;;;25.60;19.83;;;12.50;99.90;;;;;;5028373;28;20429;-40
2021/10/07 00:11:12;;;;;;;25.73;19.50;;;12.50;99.90;;;;;;5028903;28;20440;-40
2021/10/07 00:13:39;;;;;;;24.93;18.77;;;12.50;99.90;;;;;;5027627;28;20198;-40
2021/10/07 00:16:05;;;;;;;26.17;17.83;;;12.60;99.90;;;;;;5020019;28;20457;-42
2021/10/07 00:18:36;;;;;;;23.73;18.57;;;12.60;99.90;;;;;;5028169;28;20437;-39
2021/10/07 00:21:03;;;;;;;24.53;18.10;;;12.60;99.90;;;;;;5028478;28;20765;-41
2021/10/07 00:23:31;;;;;;;20.57;16.80;;;12.60;99.90;;;;;;5044464;28;20464;-40
2021/10/07 00:25:57;;;;;;;33.00;20.17;;;12.60;99.90;;;;;;5048316;28;20424;-40
2021/10/07 00:28:24;;;;;;;24.00;18.37;;;12.60;99.90;;;;;;5048281;28;20512;-42
2021/10/07 00:30:51;;;;;;;35.63;19.63;;;12.60;99.90;;;;;;5025081;28;20720;-39
2021/10/07 00:33:27;;;;;;;26.43;18.50;;;12.60;99.90;;;;;;5027293;28;20468;-40
2021/10/07 00:36:10;;;;;;;27.70;18.17;;;12.60;99.90;;;;;;5027712;28;20432;-42
2021/10/07 00:41:20;;;;;;;23.17;17.67;;;12.60;99.90;;;;;;5027821;28;20432;-41
2021/10/07 00:43:46;;;;;;;23.77;18.30;;;12.60;99.90;;;;;;5027460;28;20444;-40
2021/10/07 00:46:12;;;;;;;26.60;17.60;;;12.60;99.90;;;;;;5014738;28;20198;-40
2021/10/07 00:48:37;;;;;;;28.37;18.00;;;12.60;99.90;;;;;;5027920;28;20195;-40
2021/10/07 00:51:03;;;;;;;24.27;17.13;;;12.50;99.90;;;;;;5026619;28;20278;-41
2021/10/07 00:53:30;;;;;;;21.90;15.70;;;12.50;99.90;;;;;;5027244;28;20198;-40
2021/10/07 00:55:58;;;;;;;23.47;16.50;;;12.50;99.90;;;;;;5027187;28;20660;-40
2021/10/07 00:58:24;;;;;;;23.93;17.47;;;12.50;99.90;;;;;;5026583;28;20445;-43
2021/10/07 01:00:50;;;;;;;25.97;17.20;;;12.50;99.90;;;;;;5014288;28;20562;-41
2021/10/07 01:03:16;;;;;;;22.80;15.97;;;12.50;99.90;;;;;;5024263;28;20526;-39
2021/10/07 01:05:42;;;;;;;22.67;15.97;;;12.50;99.90;;;;;;5033733;28;20952;-40
2021/10/07 01:08:07;;;;;;;23.77;16.40;;;12.40;99.90;;;;;;5044382;28;20209;-40
2021/10/07 01:10:33;;;;;;;25.50;16.70;;;12.40;99.90;;;;;;5045684;28;20193;-39
2021/10/07 01:12:59;;;;;;;22.17;16.60;;;12.30;99.90;;;;;;5046426;28;20428;-40
2021/10/07 01:15:25;;;;;;;23.73;17.03;;;12.30;99.90;;;;;;5032040;28;20202;-39
2021/10/07 01:17:50;;;;;;;22.13;15.73;;;12.20;99.90;;;;;;5020627;28;20273;-40
2021/10/07 01:20:17;;;;;;;25.57;16.93;;;12.20;99.90;;;;;;5032505;28;20290;-40
2021/10/07 01:22:43;;;;;;;24.40;16.23;;;12.20;99.90;;;;;;5046633;28;20350;-40
2021/10/07 01:25:09;;;;;;;23.90;15.90;;;12.40;99.90;;;;;;5046797;28;21001;-40
2021/10/07 01:27:37;;;;;;;24.43;15.33;;;12.20;99.90;;;;;;5047083;28;20190;-40
2021/10/07 01:30:12;;;;;;;19.53;14.93;;;12.20;99.90;;;;;;5037199;28;20184;-41
2021/10/07 01:32:40;;;;;;;22.23;15.53;;;12.10;99.90;;;;;;5019993;28;20413;-39
2021/10/07 01:35:08;;;;;;;20.87;15.20;;;12.20;99.90;;;;;;5022081;28;20472;-40
2021/10/07 01:37:34;;;;;;;24.53;14.80;;;12.00;99.90;;;;;;5026709;28;20433;-40
2021/10/07 01:40:01;;;;;;;20.87;15.40;;;12.00;99.90;;;;;;5026700;28;20483;-40
2021/10/07 01:42:27;;;;;;;18.30;14.40;;;11.90;99.90;;;;;;5026679;28;20669;-40
2021/10/07 01:44:53;;;;;;;18.70;13.70;;;11.90;99.90;;;;;;5023753;28;20970;-41
2021/10/07 01:47:19;;;;;;;24.60;16.20;;;12.10;99.90;;;;;;5018519;28;20183;-40
2021/10/07 01:49:45;;;;;;;19.67;14.17;;;11.80;99.90;;;;;;5026530;28;20508;-41
2021/10/07 01:52:11;;;;;;;19.70;13.97;;;11.80;99.90;;;;;;5026325;28;20464;-40
2021/10/07 01:54:36;;;;;;;18.97;13.37;;;11.80;99.90;;;;;;5025776;28;20190;-39
2021/10/07 01:57:03;;;;;;;15.93;12.23;;;11.70;99.90;;;;;;5026556;28;20271;-42
2021/10/07 01:59:29;;;;;;;18.03;13.50;;;11.70;99.90;;;;;;5026609;28;20637;-41
2021/10/07 02:01:55;;;;;;;18.87;13.27;;;11.80;99.90;;;;;;5014193;28;20484;-40
2021/10/07 02:04:21;;;;;;;14.30;11.47;;;11.50;99.90;;;;;;5025346;28;20297;-39
2021/10/07 02:06:46;;;;;;;16.63;11.80;;;11.50;99.90;;;;;;5026260;28;20229;-40
2021/10/07 02:09:12;;;;;;;14.70;11.20;;;11.40;99.90;;;;;;5026350;28;20194;-41
2021/10/07 02:11:38;;;;;;;15.47;12.50;;;11.40;99.90;;;;;;5026312;28;20202;-39
2021/10/07 02:14:04;;;;;;;16.80;12.40;;;11.40;99.90;;;;;;5025846;28;20557;-41
2021/10/07 02:16:32;;;;;;;15.03;11.47;;;11.30;99.90;;;;;;5016182;28;20566;-39
2021/10/07 02:18:58;;;;;;;15.50;12.80;;;11.30;99.90;;;;;;5025936;28;20894;-40
2021/10/07 02:21:24;;;;;;;18.13;13.90;;;11.40;99.90;;;;;;5027389;28;20472;-40
2021/10/07 02:23:50;;;;;;;20.17;14.27;;;11.40;99.90;;;;;;5042161;28;20484;-40
2021/10/07 02:26:15;;;;;;;18.23;13.13;;;11.40;99.90;;;;;;5040637;28;20420;-40
2021/10/07 02:28:41;;;;;;;21.10;15.27;;;11.70;99.90;;;;;;5045964;28;20492;-40
2021/10/07 02:31:07;;;;;;;20.87;15.57;;;11.50;99.90;;;;;;5028082;28;20193;-41
2021/10/07 02:33:32;;;;;;;24.53;15.47;;;11.50;99.90;;;;;;5024366;28;20190;-40
2021/10/07 02:35:58;;;;;;;22.03;14.50;;;11.70;99.90;;;;;;5025506;28;20194;-40
2021/10/07 02:38:24;;;;;;;20.30;15.60;;;11.60;99.90;;;;;;5026138;28;20182;-40
2021/10/07 02:40:50;;;;;;;28.03;17.43;;;11.70;99.90;;;;;;5025814;28;20195;-41
2021/10/07 02:43:15;;;;;;;27.03;17.03;;;11.80;99.90;;;;;;5024983;28;20214;-39
2021/10/07 02:45:41;;;;;;;29.33;16.90;;;11.80;99.90;;;;;;5022479;28;20418;-39
2021/10/07 02:48:07;;;;;;;23.87;16.73;;;11.90;99.90;;;;;;5019770;28;20193;-39
2021/10/07 02:50:32;;;;;;;29.70;18.23;;;11.90;99.90;;;;;;5025489;28;20752;-40
2021/10/07 02:52:58;;;;;;;26.43;17.90;;;12.10;99.90;;;;;;5025224;28;20251;-40
2021/10/07 02:55:24;;;;;;;30.93;18.10;;;11.90;99.90;;;;;;5025539;28;20267;-39
2021/10/07 02:57:50;;;;;;;30.70;19.53;;;12.00;99.90;;;;;;5024216;28;20508;-40
2021/10/07 03:00:18;;;;;;;31.90;19.27;;;11.90;99.90;;;;;;5024640;28;20297;-40
2021/10/07 03:02:44;;;;;;;32.10;20.53;;;11.90;99.90;;;;;;5019807;28;20332;-39
2021/10/07 03:05:09;;;;;;;36.40;20.73;;;12.00;99.90;;;;;;5025362;28;20671;-39
2021/10/07 03:07:35;;;;;;;32.80;20.73;;;12.00;99.90;;;;;;5025893;28;20927;-40
2021/10/07 03:10:01;;;;;;;32.47;21.60;;;12.00;99.90;;;;;;5025545;28;20194;-39
2021/10/07 03:12:27;;;;;;;36.17;23.10;;;12.00;99.90;;;;;;5024141;28;20782;-39
2021/10/07 03:14:52;;;;;;;30.73;20.57;;;12.00;99.90;;;;;;5024337;28;20536;-40
2021/10/07 03:17:18;;;;;;;34.43;21.67;;;12.00;99.90;;;;;;5009068;28;20353;-40
2021/10/07 03:19:44;;;;;;;33.40;21.60;;;12.00;99.90;;;;;;5025098;28;20220;-39
2021/10/07 03:22:10;;;;;;;38.07;23.03;;;11.90;99.90;;;;;;5033680;28;20209;-40
2021/10/07 03:24:36;;;;;;;43.50;23.60;;;12.20;99.90;;;;;;5039165;28;20924;-39
2021/10/07 03:27:03;;;;;;;41.00;24.30;;;11.80;99.90;;;;;;5045276;28;20515;-41
2021/10/07 03:29:30;;;;;;;45.77;25.00;;;11.80;99.90;;;;;;5044854;28;20989;-40
2021/10/07 03:31:56;;;;;;;43.20;24.43;;;11.90;99.90;;;;;;5022115;28;20846;-40
2021/10/07 03:34:22;;;;;;;45.00;24.70;;;12.00;99.90;;;;;;5023188;28;20486;-40
2021/10/07 03:36:48;;;;;;;41.50;24.17;;;11.90;99.90;;;;;;5029432;28;20504;-40
2021/10/07 03:39:13;;;;;;;45.87;23.43;;;11.90;99.90;;;;;;5029096;28;20519;-43
2021/10/07 03:41:39;;;;;;;38.00;23.10;;;11.90;99.90;;;;;;5027724;28;20202;-40
2021/10/07 03:44:06;;;;;;;34.40;21.97;;;11.90;99.90;;;;;;5028628;28;20194;-40
2021/10/07 03:46:32;;;;;;;42.50;25.23;;;11.90;99.90;;;;;;5020874;28;20359;-39
2021/10/07 03:48:57;;;;;;;31.10;22.60;;;12.00;99.90;;;;;;5024271;28;20536;-40
2021/10/07 03:51:23;;;;;;;35.93;23.93;;;11.90;99.90;;;;;;5028886;28;20429;-40
2021/10/07 03:53:48;;;;;;;37.00;22.90;;;11.80;99.90;;;;;;5028315;28;20285;-40
2021/10/07 03:56:14;;;;;;;42.00;23.67;;;11.90;99.90;;;;;;5028505;28;20993;-40
2021/10/07 03:58:40;;;;;;;39.77;24.67;;;11.90;99.90;;;;;;5028861;28;20174;-40
2021/10/07 04:01:06;;;;;;;31.17;21.13;;;11.90;99.90;;;;;;5028053;28;20262;-40
2021/10/07 04:03:31;;;;;;;36.67;22.27;;;11.90;99.90;;;;;;5027265;28;20571;-40
2021/10/07 04:05:58;;;;;;;36.47;24.00;;;11.90;99.90;;;;;;5028722;28;20179;-40
2021/10/07 04:08:24;;;;;;;38.37;22.90;;;11.90;99.90;;;;;;5028965;28;20185;-45
2021/10/07 04:10:50;;;;;;;33.50;22.57;;;11.90;99.90;;;;;;5028295;28;20425;-40
2021/10/07 04:13:18;;;;;;;32.03;21.23;;;11.90;99.90;;;;;;5027792;28;20216;-40
2021/10/07 04:15:46;;;;;;;40.67;23.33;;;11.70;99.90;;;;;;5027369;28;20799;-39
2021/10/07 04:18:13;;;;;;;37.70;24.47;;;11.70;99.90;;;;;;5020978;28;20429;-39
2021/10/07 04:20:39;;;;;;;39.07;23.67;;;11.70;99.90;;;;;;5020453;28;20901;-42
2021/10/07 04:23:05;;;;;;;35.83;22.73;;;11.70;99.90;;;;;;5043006;28;20475;-40
2021/10/07 04:25:31;;;;;;;37.93;23.97;;;11.70;99.90;;;;;;5046334;28;20428;-39
2021/10/07 04:27:57;;;;;;;38.60;24.80;;;11.80;99.90;;;;;;5048110;28;20625;-39
2021/10/07 04:30:23;;;;;;;38.40;22.87;;;11.70;99.90;;;;;;5047888;28;20243;-41
2021/10/07 04:32:49;;;;;;;34.00;21.63;;;11.70;99.90;;;;;;5019753;28;20244;-40
2021/10/07 04:35:14;;;;;;;37.43;23.80;;;11.80;99.90;;;;;;5028038;28;20931;-40
2021/10/07 04:37:40;;;;;;;35.93;22.30;;;11.60;99.90;;;;;;5028032;28;20190;-40
2021/10/07 04:40:06;;;;;;;36.60;23.53;;;11.60;99.90;;;;;;5028289;28;20201;-40
2021/10/07 04:42:32;;;;;;;37.57;23.07;;;11.70;99.90;;;;;;5027773;28;20210;-40
2021/10/07 04:44:58;;;;;;;34.87;21.37;;;11.70;99.90;;;;;;5027379;28;20974;-40
2021/10/07 04:47:23;;;;;;;33.67;20.83;;;11.70;99.90;;;;;;5017543;28;20199;-39
2021/10/07 04:49:49;;;;;;;36.17;22.63;;;11.70;99.90;;;;;;5027787;28;20247;-40
2021/10/07 04:52:15;;;;;;;37.07;22.57;;;11.50;99.90;;;;;;5028166;28;20194;-40
2021/10/07 04:54:40;;;;;;;36.80;22.17;;;11.50;99.90;;;;;;5027017;28;20730;-40
2021/10/07 04:57:06;;;;;;;39.50;22.40;;;11.80;99.90;;;;;;5027579;28;20214;-41
2021/10/07 04:59:31;;;;;;;36.23;22.90;;;11.60;99.90;;;;;;5027522;28;20199;-39
2021/10/07 05:01:57;;;;;;;33.10;20.13;;;11.50;99.90;;;;;;5020381;28;20229;-39
2021/10/07 05:04:23;;;;;;;34.23;21.40;;;11.50;99.90;;;;;;5026800;28;20187;-39
2021/10/07 05:06:48;;;;;;;37.00;21.87;;;11.50;99.90;;;;;;5027691;28;20182;-39
2021/10/07 05:09:14;;;;;;;35.17;20.77;;;11.70;99.90;;;;;;5027497;28;20265;-42
2021/10/07 05:11:40;;;;;;;41.13;21.20;;;11.60;99.90;;;;;;5027417;28;20190;-40
2021/10/07 05:14:05;;;;;;;32.27;19.03;;;11.60;99.90;;;;;;5026678;28;20195;-39
2021/10/07 05:16:31;;;;;;;53.13;20.70;;;11.70;99.90;;;;;;5024173;28;20286;-39
2021/10/07 05:18:57;;;;;;;31.67;18.33;;;11.50;99.90;;;;;;5021946;28;20201;-40
2021/10/07 05:21:22;;;;;;;34.20;16.53;;;11.40;99.90;;;;;;5028503;28;20273;-40
2021/10/07 05:23:48;;;;;;;31.40;18.13;;;11.40;99.90;;;;;;5046403;28;20194;-40
2021/10/07 05:26:13;;;;;;;31.67;19.43;;;11.40;99.90;;;;;;5035162;28;20194;-40
2021/10/07 05:28:43;;;;;;;31.27;18.17;;;11.30;99.90;;;;;;5046777;28;20193;-40
2021/10/07 05:31:10;;;;;;;29.70;18.17;;;11.40;99.90;;;;;;5047164;28;20182;-39
2021/10/07 05:33:35;;;;;;;33.13;18.70;;;11.30;99.90;;;;;;5015273;28;20441;-39
2021/10/07 05:36:01;;;;;;;31.07;17.80;;;11.60;99.90;;;;;;5026502;28;20795;-39
2021/10/07 05:38:27;;;;;;;36.23;18.30;;;11.40;99.90;;;;;;5026931;28;20198;-39
2021/10/07 05:40:53;;;;;;;37.50;19.03;;;11.50;99.90;;;;;;5026600;28;20444;-41
2021/10/07 05:43:18;;;;;;;36.50;19.70;;;11.50;99.90;;;;;;5025778;28;20233;-41
2021/10/07 05:45:44;;;;;;;38.77;20.03;;;11.30;99.90;;;;;;5026597;28;20194;-41
2021/10/07 05:48:10;;;;;;;48.67;19.50;;;11.50;99.90;;;;;;5013304;28;20198;-40
2021/10/07 05:50:35;;;;;;;33.47;18.23;;;11.60;99.90;;;;;;5026441;28;20194;-39
2021/10/07 05:53:02;;;;;;;33.10;16.73;;;11.50;99.90;;;;;;5026160;28;20723;-39
2021/10/07 05:55:28;;;;;;;30.50;18.07;;;11.50;99.90;;;;;;5026827;28;20197;-39
2021/10/07 05:57:53;;;;;;;34.80;18.40;;;11.50;99.90;;;;;;5025250;28;20441;-40
2021/10/07 06:00:20;;;;;;;32.13;17.60;;;11.50;99.90;;;;;;5026793;28;20265;-39
2021/10/07 06:02:46;;;;;;;34.97;18.07;;;11.50;99.90;;;;;;5022277;28;20577;-40
2021/10/07 06:05:12;;;;;;;30.93;16.67;;;11.40;99.90;;;;;;5023162;28;20516;-40
2021/10/07 06:07:37;;;;;;;35.70;18.27;;;11.40;99.90;;;;;;5026281;28;20199;-39
2021/10/07 06:10:06;;;;;;;30.27;15.50;;;11.50;99.90;;;;;;5026215;28;20265;-45
2021/10/07 06:12:32;;;;;;;25.67;14.63;;;11.50;99.90;;;;;;5026014;28;20968;-40
2021/10/07 06:14:57;;;;;;;30.37;16.40;;;11.40;99.90;;;;;;5025442;28;20429;-39
2021/10/07 06:17:23;;;;;;;27.67;16.40;;;11.30;99.90;;;;;;5020569;28;20716;-39
2021/10/07 06:19:54;;;;;;;31.30;17.40;;;11.30;99.90;;;;;;5024387;28;20622;-43
2021/10/07 06:22:19;;;;;;;31.63;16.53;;;11.30;99.90;;;;;;5028511;28;20211;-40
2021/10/07 06:24:45;;;;;;;36.80;17.53;;;11.30;99.90;;;;;;5023717;28;20814;-40
2021/10/07 06:27:11;;;;;;;34.40;17.93;;;11.30;99.90;;;;;;5025738;28;20187;-39
2021/10/07 06:29:36;;;;;;;36.83;16.90;;;11.30;99.90;;;;;;5025615;28;20762;-39
2021/10/07 06:32:02;;;;;;;30.50;16.17;;;11.40;99.90;;;;;;5025857;28;20192;-39
2021/10/07 06:34:28;;;;;;;26.50;14.43;;;11.40;99.90;;;;;;5014501;28;20187;-40
2021/10/07 06:36:54;;;;;;;25.10;13.53;;;11.40;99.90;;;;;;5025629;28;20509;-40
2021/10/07 06:39:19;;;;;;;26.83;14.00;;;11.40;99.90;;;;;;5025611;28;20397;-39
2021/10/07 06:41:46;;;;;;;26.20;15.63;;;11.30;99.90;;;;;;5025804;28;20268;-42
2021/10/07 06:44:11;;;;;;;27.80;15.00;;;11.30;99.90;;;;;;5023825;28;20209;-40
2021/10/07 06:46:37;;;;;;;31.03;16.23;;;11.30;99.90;;;;;;5024848;28;20433;-39
2021/10/07 06:49:03;;;;;;;30.47;17.93;;;11.30;99.90;;;;;;5018861;28;20183;-39
2021/10/07 06:51:29;;;;;;;28.70;16.47;;;11.30;99.90;;;;;;5024147;28;20183;-40
2021/10/07 06:53:57;;;;;;;30.00;17.23;;;11.30;99.90;;;;;;5025070;28;20186;-40
2021/10/07 06:56:23;;;;;;;32.60;18.53;;;11.30;99.90;;;;;;5025184;28;20467;-40
2021/10/07 06:58:53;;;;;;;33.77;18.80;;;11.40;99.90;;;;;;5025576;28;21367;-39
2021/10/07 07:01:25;;;;;;;30.20;16.83;;;11.40;99.90;;;;;;5025510;28;20429;-41
2021/10/07 07:03:52;;;;;;;30.57;16.17;;;11.70;99.90;;;;;;5020389;28;20437;-41
2021/10/07 07:06:19;;;;;;;30.97;17.90;;;11.50;99.90;;;;;;5022574;28;20456;-41
2021/10/07 07:08:45;;;;;;;34.73;19.30;;;11.60;99.90;;;;;;5025181;28;21129;-40
2021/10/07 07:11:11;;;;;;;33.40;18.40;;;11.80;99.90;;;;;;5029705;28;20512;-39
2021/10/07 07:13:37;;;;;;;34.13;18.93;;;11.60;99.90;;;;;;5029091;28;20845;-39
2021/10/07 07:16:03;;;;;;;28.20;16.43;;;11.60;99.90;;;;;;5029529;28;20421;-40
2021/10/07 07:18:29;;;;;;;29.43;16.67;;;11.60;99.90;;;;;;5026434;28;20480;-40
2021/10/07 07:20:54;;;;;;;26.90;16.20;;;11.70;99.90;;;;;;5025606;28;20213;-42
2021/10/07 07:23:20;;;;;;;25.00;15.60;;;11.70;99.90;;;;;;5028552;28;20342;-39
2021/10/07 07:25:46;;;;;;;26.33;16.27;;;11.80;99.90;;;;;;5028934;28;20284;-40
2021/10/07 07:28:12;;;;;;;19.90;14.10;;;11.80;99.90;;;;;;5029280;28;20194;-39
2021/10/07 07:30:38;;;;;;;28.43;16.53;;;11.80;99.90;;;;;;5029388;28;20513;-40
2021/10/07 07:33:03;;;;;;;27.97;16.30;;;11.70;99.90;;;;;;5028576;28;20436;-40
2021/10/07 07:35:31;;;;;;;24.30;16.03;;;11.80;99.90;;;;;;5014242;28;20803;-39
2021/10/07 07:38:03;;;;;;;29.47;17.77;;;11.80;99.90;;;;;;5028594;28;20178;-39
2021/10/07 07:40:30;;;;;;;30.50;17.77;;;11.70;99.90;;;;;;5029303;28;20437;-40
2021/10/07 07:42:56;;;;;;;25.17;16.80;;;11.90;99.90;;;;;;5027210;28;20461;-41
2021/10/07 07:45:22;;;;;;;27.87;18.10;;;12.00;99.90;;;;;;5029262;28;20849;-40
2021/10/07 07:47:48;;;;;;;32.23;18.80;;;11.70;99.90;;;;;;5027948;28;20417;-39
2021/10/07 07:50:18;;;;;;;27.23;16.53;;;11.90;99.90;;;;;;5016073;28;20523;-41
2021/10/07 07:52:44;;;;;;;28.10;17.93;;;11.90;99.90;;;;;;5028095;28;20549;-40
2021/10/07 07:55:10;;;;;;;28.93;16.90;;;11.80;99.90;;;;;;5028840;28;20567;-40
2021/10/07 07:57:35;;;;;;;29.87;18.20;;;11.90;99.90;;;;;;5028906;28;20468;-40
2021/10/07 08:00:02;;;;;;;28.03;17.93;;;12.00;99.90;;;;;;5028752;28;20213;-40
2021/10/07 08:02:28;;;;;;;28.53;17.27;;;11.90;99.90;;;;;;5028568;28;20223;-39
2021/10/07 08:04:54;;;;;;;23.93;15.53;;;12.00;99.90;;;;;;5017427;28;20445;-39
2021/10/07 08:07:20;;;;;;;26.77;16.90;;;12.10;99.90;;;;;;5028333;28;20193;-40
2021/10/07 08:09:46;;;;;;;24.30;16.13;;;12.10;99.90;;;;;;5028785;28;20421;-39
2021/10/07 08:12:13;;;;;;;25.83;16.53;;;12.10;99.90;;;;;;5028565;28;20187;-39
2021/10/07 08:14:43;;;;;;;27.80;17.90;;;12.20;99.90;;;;;;5027926;28;20623;-40
2021/10/07 08:17:09;;;;;;;28.50;17.60;;;12.20;99.90;;;;;;5028663;28;20535;-39
2021/10/07 08:19:35;;;;;;;22.70;16.30;;;12.30;99.90;;;;;;5022142;28;20460;-40
2021/10/07 08:22:01;;;;;;;23.83;16.47;;;12.30;99.90;;;;;;5023428;28;20883;-39
2021/10/07 08:24:27;;;;;;;20.73;15.33;;;12.30;99.90;;;;;;5027616;28;20440;-40
2021/10/07 08:26:52;;;;;;;19.17;12.77;;;12.30;99.90;;;;;;5028286;28;20406;-40
2021/10/07 08:29:18;;;;;;;21.93;14.07;;;12.30;99.90;;;;;;5028294;28;20201;-40
2021/10/07 08:31:44;;;;;;;20.13;14.70;;;12.30;99.90;;;;;;5028205;28;20197;-41
2021/10/07 08:34:09;;;;;;;22.37;14.90;;;12.30;99.90;;;;;;5023070;28;20534;-40
2021/10/07 08:36:42;;;;;;;18.07;13.30;;;12.30;99.90;;;;;;5019394;28;20434;-40
2021/10/07 08:39:11;;;;;;;16.17;12.40;;;12.30;99.90;;;;;;5027968;28;20413;-40
2021/10/07 08:41:41;;;;;;;20.13;14.50;;;12.40;99.90;;;;;;5027821;28;21135;-40
2021/10/07 08:44:07;;;;;;;19.10;13.57;;;12.40;99.90;;;;;;5027280;28;20938;-40
2021/10/07 08:46:33;;;;;;;17.43;12.67;;;12.50;99.90;;;;;;5026397;28;20524;-40
2021/10/07 08:49:00;;;;;;;15.03;12.00;;;12.50;99.90;;;;;;5025646;28;20179;-39
2021/10/07 08:51:26;;;;;;;16.73;13.40;;;12.40;99.90;;;;;;5018406;28;20175;-40
2021/10/07 08:53:52;;;;;;;19.20;14.30;;;12.50;99.90;;;;;;5026929;28;20425;-40
2021/10/07 08:56:20;;;;;;;18.20;12.87;;;12.50;99.90;;;;;;5027761;28;20495;-39
2021/10/07 08:58:46;;;;;;;17.00;12.53;;;12.50;99.90;;;;;;5027678;28;20509;-40
2021/10/07 09:01:34;;;;;;;15.47;11.90;;;12.50;99.90;;;;;;5027105;28;20451;-42
2021/10/07 09:04:01;;;;;;;15.87;11.57;;;12.50;99.90;;;;;;5025525;28;20525;-40
2021/10/07 09:06:27;;;;;;;16.33;11.80;;;12.60;99.90;;;;;;5021967;28;20420;-40
2021/10/07 09:08:53;;;;;;;17.87;12.20;;;12.70;99.90;;;;;;5027763;28;20413;-40
2021/10/07 09:11:29;;;;;;;14.07;10.40;;;12.90;99.90;;;;;;5027680;28;20413;-40
2021/10/07 09:14:04;;;;;;;14.50;10.70;;;12.90;99.90;;;;;;5026920;28;20421;-39
2021/10/07 09:16:44;;;;;;;17.97;12.60;;;13.00;99.90;;;;;;5026184;28;20486;-40
2021/10/07 09:19:26;;;;;;;22.50;12.67;;;13.20;99.90;;;;;;5025833;28;20413;-39
2021/10/07 09:21:55;;;;;;;17.60;11.97;;;13.50;99.90;;;;;;5025093;28;20464;-42
2021/10/07 09:24:28;;;;;;;15.23;11.10;;;13.80;99.90;;;;;;5026366;28;20508;-40
2021/10/07 09:27:03;;;;;;;15.90;12.50;;;14.10;99.90;;;;;;5014397;28;20541;-42
2021/10/07 09:29:41;;;;;;;14.43;10.77;;;14.20;99.90;;;;;;5026809;28;20428;-40
2021/10/07 09:32:08;;;;;;;14.97;10.50;;;14.20;99.90;;;;;;5024887;28;21065;-42
2021/10/07 09:34:48;;;;;;;14.70;10.07;;;14.10;99.90;;;;;;5021875;28;20441;-40
2021/10/07 09:37:38;;;;;;;18.27;12.07;;;14.10;99.90;;;;;;5024518;28;20731;-40
2021/10/07 09:40:31;;;;;;;13.90;10.70;;;14.00;99.90;;;;;;5020950;28;20532;-46
2021/10/07 09:42:59;;;;;;;12.47;9.40;;;13.90;99.90;;;;;;5024656;28;20830;-39
2021/10/07 09:45:26;;;;;;;13.80;10.60;;;13.90;99.90;;;;;;5027002;28;20855;-41
2021/10/07 09:47:57;;;;;;;13.17;8.50;;;13.80;99.90;;;;;;5025979;28;20790;-40
2021/10/07 09:50:35;;;;;;;11.17;8.20;;;13.70;99.90;;;;;;5017314;28;20824;-42
2021/10/07 09:53:10;;;;;;;11.17;9.00;;;13.70;99.90;;;;;;5020880;28;20853;-40
2021/10/07 09:55:44;;;;;;;9.77;8.60;;;13.70;99.90;;;;;;5026420;28;20792;-41
2021/10/07 09:58:14;;;;;;;8.90;7.63;;;13.70;99.90;;;;;;5026555;28;20788;-40
2021/10/07 10:00:44;;;;;;;10.73;8.50;;;13.70;99.90;;;;;;5026211;28;20586;-40
2021/10/07 10:03:12;;;;;;;13.27;9.47;;;13.70;99.90;;;;;;5026037;28;20488;-41
2021/10/07 10:05:39;;;;;;;12.90;9.10;;;13.70;99.90;;;;;;5018821;28;20460;-40
2021/10/07 10:08:07;;;;;;;10.90;8.53;;;13.80;99.90;;;;;;5022098;28;20840;-40
2021/10/07 10:10:35;;;;;;;13.27;9.73;;;13.90;99.90;;;;;;5026065;28;20437;-43
2021/10/07 10:13:01;;;;;;;10.53;8.90;;;14.20;99.90;;;;;;5025659;28;20432;-40
2021/10/07 10:15:27;;;;;;;11.63;9.40;;;14.50;99.90;;;;;;5024864;28;20460;-43
2021/10/07 10:17:53;;;;;;;9.50;7.93;;;14.60;99.90;;;;;;5026193;28;20512;-40
2021/10/07 10:20:26;;;;;;;11.57;8.37;;;14.60;99.90;;;;;;5019622;28;20549;-41
2021/10/07 10:22:58;;;;;;;7.97;7.13;;;14.50;99.90;;;;;;5020722;28;20313;-40
2021/10/07 10:25:25;;;;;;;8.77;7.60;;;14.40;99.90;;;;;;5025959;28;20423;-40
2021/10/07 10:28:06;;;;;;;7.97;6.20;;;14.40;99.90;;;;;;5026070;28;20422;-40
2021/10/07 10:30:44;;;;;;;7.90;7.13;;;14.40;99.90;;;;;;5026004;28;20439;-40
2021/10/07 10:33:27;;;;;;;8.03;7.27;;;14.60;99.90;;;;;;5025505;28;20420;-40
2021/10/07 10:35:54;;;;;;;10.53;7.77;;;14.70;99.90;;;;;;5019134;28;20929;-40
2021/10/07 10:38:19;;;;;;;8.10;7.10;;;14.80;99.90;;;;;;5025850;28;20436;-40
2021/10/07 10:40:45;;;;;;;8.97;7.13;;;15.00;99.90;;;;;;5026201;28;20784;-40
2021/10/07 10:43:17;;;;;;;7.40;6.57;;;15.10;99.90;;;;;;5024584;28;20206;-41
2021/10/07 10:45:52;;;;;;;8.80;6.97;;;15.20;99.90;;;;;;5025626;28;20265;-40
2021/10/07 10:48:49;;;;;;;8.30;6.27;;;15.30;99.90;;;;;;5024244;28;20884;-40
2021/10/07 10:51:16;;;;;;;8.40;7.47;;;15.20;99.90;;;;;;5015936;28;20492;-42
2021/10/07 10:54:02;;;;;;;10.87;7.93;;;15.10;99.90;;;;;;5024560;28;20424;-41
2021/10/07 10:56:33;;;;;;;8.00;7.20;;;15.10;99.90;;;;;;5025912;28;21033;-40
2021/10/07 10:59:17;;;;;;;7.67;6.87;;;15.00;99.90;;;;;;5025612;28;20674;-40
2021/10/07 11:01:43;;;;;;;8.60;6.77;;;15.00;99.90;;;;;;5025794;28;20429;-41
2021/10/07 11:04:10;;;;;;;8.90;7.63;;;14.90;99.90;;;;;;5011574;28;20934;-39
2021/10/07 11:07:13;;;;;;;9.60;7.13;;;14.90;99.90;;;;;;5014220;28;20441;-40
2021/10/07 11:10:08;;;;;;;9.77;6.70;;;14.90;99.90;;;;;;5024408;28;20428;-42
2021/10/07 11:12:45;;;;;;;8.50;6.40;;;14.90;99.90;;;;;;5014548;28;20425;-42
2021/10/07 11:15:11;;;;;;;7.30;6.53;;;14.80;99.90;;;;;;5025738;28;20420;-40
2021/10/07 11:17:42;;;;;;;9.20;6.43;;;14.80;99.90;;;;;;5025951;28;20421;-43
2021/10/07 11:20:29;;;;;;;6.83;5.80;;;14.80;99.90;;;;;;5024299;28;20436;-40
2021/10/07 11:23:08;;;;;;;8.03;5.40;;;14.80;99.90;;;;;;5020994;28;20985;-40
2021/10/07 11:25:37;;;;;;;6.83;6.00;;;14.80;99.90;;;;;;5025382;28;20417;-41
2021/10/07 11:28:03;;;;;;;6.93;6.23;;;14.80;99.90;;;;;;5025391;28;20433;-40
2021/10/07 11:30:33;;;;;;;7.20;6.40;;;14.90;99.90;;;;;;5025218;28;20417;-40
2021/10/07 11:33:00;;;;;;;8.13;6.70;;;15.10;99.90;;;;;;5024785;28;20425;-40
2021/10/07 11:35:26;;;;;;;7.60;6.90;;;15.40;99.90;;;;;;5022314;28;20477;-41
2021/10/07 11:37:52;;;;;;;8.40;6.40;;;15.60;99.90;;;;;;5020475;28;20445;-40
2021/10/07 11:40:27;;;;;;;7.23;6.60;;;15.80;99.90;;;;;;5025045;28;21189;-40
2021/10/07 11:43:04;;;;;;;8.03;6.73;;;16.00;99.90;;;;;;5025081;28;20821;-40
2021/10/07 11:45:35;;;;;;;8.33;6.23;;;16.20;99.90;;;;;;5025077;28;20420;-42
2021/10/07 11:48:07;;;;;;;6.53;4.93;;;16.40;99.90;;;;;;5023991;28;20417;-40
2021/10/07 11:50:38;;;;;;;6.60;5.47;;;16.40;99.90;;;;;;5021682;28;20441;-40
2021/10/07 11:53:05;;;;;;;5.47;4.37;;;16.40;99.90;;;;;;5019932;28;20425;-40
2021/10/07 11:55:31;;;;;;;5.30;4.30;;;16.40;99.90;;;;;;5026079;28;20479;-40
2021/10/07 11:58:00;;;;;;;4.77;4.00;;;16.30;99.90;;;;;;5028760;28;20523;-40
2021/10/07 12:00:45;;;;;;;5.50;4.40;;;16.40;99.90;;;;;;5026884;28;20252;-40
2021/10/07 12:03:17;;;;;;;4.10;3.70;;;16.50;99.90;;;;;;5028147;28;20518;-40
2021/10/07 12:05:46;;;;;;;7.50;4.30;;;16.70;99.90;;;;;;5022564;28;21047;-41
2021/10/07 12:08:15;;;;;;;4.60;4.03;;;16.90;99.90;;;;;;5025423;28;20652;-40
2021/10/07 12:10:47;;;;;;;3.10;2.80;;;17.10;99.90;;;;;;5019241;28;20774;-41
2021/10/07 12:13:19;;;;;;;2.77;1.90;;;17.30;99.90;;;;;;5027859;28;20433;-43
2021/10/07 12:15:49;;;;;;;4.97;2.80;;;17.40;99.90;;;;;;5028502;28;20432;-40
2021/10/07 12:18:16;;;;;;;3.60;2.53;;;17.10;99.90;;;;;;5028380;28;20508;-41
2021/10/07 12:21:03;;;;;;;2.47;1.90;;;16.90;99.90;;;;;;5024319;28;20454;-40
2021/10/07 12:23:30;;;;;;;3.93;2.73;;;16.70;99.90;;;;;;5018697;28;20468;-40
2021/10/07 12:26:00;;;;;;;2.90;2.60;;;16.60;99.90;;;;;;5028431;28;20421;-45
2021/10/07 12:28:27;;;;;;;3.13;2.80;;;16.70;99.90;;;;;;5028130;28;20694;-46
2021/10/07 12:31:03;;;;;;;4.30;3.90;;;16.70;99.90;;;;;;5028233;28;20522;-44
2021/10/07 12:33:33;;;;;;;4.00;3.30;;;16.80;99.90;;;;;;5027514;28;20424;-40
2021/10/07 12:36:10;;;;;;;7.03;4.70;;;17.00;99.90;;;;;;5023042;28;20841;-41
2021/10/07 12:38:53;;;;;;;5.10;4.60;;;17.10;99.90;;;;;;5020564;28;20419;-41